createdAt,value
2023-09-13T00:02:24.281Z,14.50
2023-09-13T00:04:51.425Z,13.45
2023-09-13T00:07:19.609Z,13.50
2023-09-13T00:09:46.878Z,14.43
2023-09-13T00:12:14.409Z,14.38
2023-09-13T00:14:41.387Z,14.45
2023-09-13T00:17:08.454Z,13.35
2023-09-13T00:19:38.994Z,13.57
2023-09-13T00:22:06.468Z,12.82
2023-09-13T00:24:33.528Z,12.32
2023-09-13T00:27:00.516Z,13.65
2023-09-13T00:29:31.456Z,13.75
2023-09-13T00:31:58.668Z,13.60
2023-09-13T00:34:25.718Z,14.32
2023-09-13T00:36:52.856Z,14.90
2023-09-13T00:39:19.938Z,13.85
2023-09-13T00:41:46.961Z,13.52
2023-09-13T00:44:14.090Z,12.65
2023-09-13T00:46:42.168Z,14.18
2023-09-13T00:49:10.205Z,14.25
2023-09-13T00:51:37.370Z,14.20
2023-09-13T00:54:05.679Z,13.95
2023-09-13T00:56:37.196Z,14.48
2023-09-13T00:59:04.913Z,14.48
2023-09-13T01:01:34.401Z,14.15
2023-09-13T01:04:02.897Z,13.57
2023-09-13T01:06:30.263Z,14.32
2023-09-13T01:08:57.372Z,14.82
2023-09-13T01:11:24.565Z,15.23
2023-09-13T01:13:51.638Z,16.65
2023-09-13T01:16:35.549Z,17.83
2023-09-13T01:22:11.565Z,17.65
2023-09-13T01:24:50.815Z,19.92
2023-09-13T01:27:26.827Z,17.55
2023-09-13T01:29:56.339Z,19.90
2023-09-13T01:32:23.263Z,19.95
2023-09-13T01:34:50.257Z,18.52
2023-09-13T01:37:18.038Z,16.75
2023-09-13T01:39:45.349Z,20.58
2023-09-13T01:42:13.569Z,20.45
2023-09-13T01:44:43.575Z,15.48
2023-09-13T01:47:11.635Z,19.92
2023-09-13T01:49:39.611Z,19.00
2023-09-13T01:52:07.176Z,18.52
2023-09-13T01:54:35.404Z,18.00
2023-09-13T01:57:21.161Z,16.25
2023-09-13T01:59:49.117Z,16.38
2023-09-13T02:02:16.181Z,16.33
2023-09-13T02:04:43.231Z,16.50
2023-09-13T02:07:10.253Z,14.15
2023-09-13T02:09:38.843Z,16.13
2023-09-13T02:12:07.149Z,15.00
2023-09-13T02:14:34.791Z,15.07
2023-09-13T02:17:02.129Z,15.35
2023-09-13T02:19:29.553Z,14.38
2023-09-13T02:21:56.855Z,14.70
2023-09-13T02:24:23.915Z,14.07
2023-09-13T02:26:59.210Z,14.30
2023-09-13T02:29:44.437Z,14.33
2023-09-13T02:32:12.540Z,15.95
2023-09-13T02:34:40.289Z,13.35
2023-09-13T02:37:07.370Z,14.88
2023-09-13T02:39:39.623Z,16.20
2023-09-13T02:42:07.825Z,15.55
2023-09-13T02:44:35.915Z,16.05
2023-09-13T02:47:04.057Z,13.18
2023-09-13T02:49:33.041Z,16.05
2023-09-13T02:52:00.236Z,16.35
2023-09-13T02:54:27.286Z,14.77
2023-09-13T02:56:54.866Z,13.00
2023-09-13T02:59:21.880Z,14.63
2023-09-13T03:01:50.844Z,13.00
2023-09-13T03:04:18.260Z,12.52
2023-09-13T03:06:46.435Z,11.80
2023-09-13T03:09:14.552Z,11.73
2023-09-13T03:11:41.596Z,11.15
2023-09-13T03:14:08.753Z,12.05
2023-09-13T03:16:36.691Z,11.45
2023-09-13T03:19:04.885Z,10.20
2023-09-13T03:21:36.993Z,11.00
2023-09-13T03:24:06.649Z,9.80
2023-09-13T03:26:35.313Z,11.30
2023-09-13T03:29:02.644Z,10.20
2023-09-13T03:31:32.642Z,10.98
2023-09-13T03:34:03.919Z,10.98
2023-09-13T03:36:33.740Z,10.20
2023-09-13T03:39:01.816Z,9.82
2023-09-13T03:41:31.457Z,11.20
2023-09-13T03:43:58.746Z,9.25
2023-09-13T03:46:26.944Z,10.32
2023-09-13T03:48:56.902Z,9.77
2023-09-13T03:51:24.077Z,8.18
2023-09-13T03:53:51.220Z,7.72
2023-09-13T03:56:18.369Z,7.63
2023-09-13T03:58:45.348Z,7.35
2023-09-13T04:01:12.630Z,7.22
2023-09-13T04:03:39.893Z,6.80
2023-09-13T04:06:07.221Z,6.70
2023-09-13T04:08:34.481Z,6.72
2023-09-13T04:11:02.771Z,6.00
2023-09-13T04:13:31.850Z,5.90
2023-09-13T04:16:04.308Z,5.93
2023-09-13T04:18:32.416Z,5.45
2023-09-13T04:20:59.703Z,5.38
2023-09-13T04:23:27.285Z,5.07
2023-09-13T04:25:54.679Z,5.75
2023-09-13T04:28:23.466Z,5.45
2023-09-13T04:30:50.685Z,5.32
2023-09-13T04:33:54.349Z,4.60
2023-09-13T04:36:25.574Z,4.70
2023-09-13T04:38:53.746Z,5.88
2023-09-13T04:41:20.785Z,5.78
2023-09-13T04:43:48.186Z,4.82
2023-09-13T04:46:18.658Z,5.10
2023-09-13T04:48:46.022Z,5.30
2023-09-13T04:51:13.258Z,5.20
2023-09-13T04:53:40.921Z,4.95
2023-09-13T04:56:09.474Z,5.80
2023-09-13T04:58:55.461Z,5.63
2023-09-13T05:01:22.681Z,6.75
2023-09-13T05:03:50.857Z,5.85
2023-09-13T05:06:18.543Z,6.22
2023-09-13T05:08:46.136Z,5.65
2023-09-13T05:11:13.311Z,6.60
2023-09-13T05:13:40.781Z,6.78
2023-09-13T05:16:08.203Z,5.85
2023-09-13T05:18:35.300Z,6.65
2023-09-13T05:21:02.358Z,7.10
2023-09-13T05:23:29.408Z,6.15
2023-09-13T05:25:57.186Z,6.60
2023-09-13T05:28:25.671Z,6.30
2023-09-13T05:30:53.152Z,7.15
2023-09-13T05:33:20.295Z,7.03
2023-09-13T05:35:47.832Z,6.55
2023-09-13T05:38:14.802Z,6.75
2023-09-13T05:40:41.790Z,7.82
2023-09-13T05:43:08.838Z,7.40
2023-09-13T05:45:35.949Z,6.85
2023-09-13T05:48:03.634Z,6.50
2023-09-13T05:50:30.896Z,6.03
2023-09-13T05:52:58.314Z,6.85
2023-09-13T05:55:25.583Z,7.47
2023-09-13T05:57:53.072Z,7.18
2023-09-13T06:00:20.631Z,7.00
2023-09-13T06:02:47.639Z,7.38
2023-09-13T06:05:14.719Z,7.38
2023-09-13T06:07:41.849Z,7.50
2023-09-13T06:10:09.382Z,6.97
2023-09-13T06:12:36.503Z,6.78
2023-09-13T06:15:03.800Z,6.82
2023-09-13T06:17:30.790Z,6.07
2023-09-13T06:19:58.326Z,5.45
2023-09-13T06:22:25.928Z,4.10
2023-09-13T06:24:53.137Z,3.50
2023-09-13T06:27:20.814Z,3.35
2023-09-13T06:29:47.935Z,4.00
2023-09-13T06:32:35.566Z,4.93
2023-09-13T06:35:02.338Z,5.35
2023-09-13T06:37:30.528Z,5.15
2023-09-13T06:39:58.271Z,5.50
2023-09-13T06:42:29.121Z,5.20
2023-09-13T06:45:23.970Z,5.03
2023-09-13T06:47:54.085Z,5.15
2023-09-13T06:50:43.318Z,5.47
2023-09-13T06:53:26.559Z,5.40
2023-09-13T06:55:58.080Z,4.45
2023-09-13T06:58:28.929Z,6.00
2023-09-13T07:01:17.972Z,5.50
2023-09-13T07:04:08.044Z,5.07
2023-09-13T07:06:36.669Z,5.70
2023-09-13T07:09:05.228Z,5.30
2023-09-13T07:11:32.245Z,5.07
2023-09-13T07:14:00.565Z,5.13
2023-09-13T07:16:28.051Z,5.70
2023-09-13T07:18:56.824Z,4.95
2023-09-13T07:21:23.914Z,5.20
2023-09-13T07:23:52.295Z,4.97
2023-09-13T07:26:19.364Z,4.63
2023-09-13T07:28:46.727Z,4.68
2023-09-13T07:31:14.250Z,5.15
2023-09-13T07:33:41.272Z,4.35
2023-09-13T07:36:08.437Z,4.07
2023-09-13T07:38:36.278Z,3.40
2023-09-13T07:41:03.471Z,4.03
2023-09-13T07:43:30.626Z,4.05
2023-09-13T07:45:57.714Z,4.63
2023-09-13T07:48:26.799Z,4.18
2023-09-13T07:50:53.846Z,4.18
2023-09-13T07:53:20.944Z,3.80
2023-09-13T07:55:48.089Z,4.47
2023-09-13T07:58:15.895Z,3.40
2023-09-13T08:00:44.805Z,3.20
2023-09-13T08:03:11.978Z,3.10
2023-09-13T08:05:39.244Z,2.90
2023-09-13T08:08:06.555Z,2.65
2023-09-13T08:10:33.575Z,2.20
2023-09-13T08:13:00.579Z,2.42
2023-09-13T08:15:38.948Z,2.30
2023-09-13T08:18:14.530Z,1.83
2023-09-13T08:20:42.886Z,2.15
2023-09-13T08:23:10.260Z,2.28
2023-09-13T08:25:37.568Z,2.38
2023-09-13T08:28:05.308Z,2.00
2023-09-13T08:30:32.368Z,2.63
2023-09-13T08:32:59.566Z,2.35
2023-09-13T08:35:27.086Z,2.40
2023-09-13T08:37:54.211Z,2.30
2023-09-13T08:40:21.479Z,2.67
2023-09-13T08:42:48.975Z,2.35
2023-09-13T08:45:15.929Z,2.03
2023-09-13T08:47:55.665Z,2.95
2023-09-13T08:50:28.601Z,2.33
2023-09-13T08:53:00.563Z,2.53
2023-09-13T08:55:28.056Z,2.03
2023-09-13T08:57:57.323Z,2.38
2023-09-13T09:00:27.724Z,2.03
2023-09-13T09:02:57.102Z,1.67
2023-09-13T09:05:27.464Z,1.77
2023-09-13T09:07:57.363Z,2.00
2023-09-13T09:10:25.772Z,2.38
2023-09-13T09:12:57.098Z,2.20
2023-09-13T09:15:25.968Z,2.17
2023-09-13T09:17:57.194Z,2.17
2023-09-13T09:20:29.700Z,2.45
2023-09-13T09:22:59.331Z,2.05
2023-09-13T09:25:27.206Z,2.05
2023-09-13T09:27:54.636Z,2.70
2023-09-13T09:30:39.822Z,2.22
2023-09-13T09:33:08.148Z,1.67
2023-09-13T09:35:38.437Z,1.90
2023-09-13T09:38:30.117Z,2.15
2023-09-13T09:40:59.629Z,1.95
2023-09-13T09:43:27.240Z,1.67
2023-09-13T09:45:54.686Z,2.00
2023-09-13T09:48:22.418Z,1.75
2023-09-13T09:50:59.228Z,2.00
2023-09-13T09:53:26.495Z,1.58
2023-09-13T09:55:54.242Z,1.88
2023-09-13T09:58:23.067Z,2.00
2023-09-13T10:00:52.828Z,1.63
2023-09-13T10:03:22.584Z,2.20
2023-09-13T10:06:16.452Z,1.75
2023-09-13T10:08:49.189Z,1.75
2023-09-13T10:13:48.727Z,1.65
2023-09-13T10:16:17.427Z,1.75
2023-09-13T10:18:46.039Z,1.60
2023-09-13T10:21:15.664Z,1.30
2023-09-13T10:23:46.825Z,1.52
2023-09-13T10:26:14.785Z,1.20
2023-09-13T10:28:45.605Z,1.48
2023-09-13T10:31:33.126Z,1.60
2023-09-13T10:34:05.330Z,1.48
2023-09-13T10:36:46.696Z,1.92
2023-09-13T10:39:19.058Z,1.77
2023-09-13T10:41:59.864Z,1.77
2023-09-13T10:44:26.947Z,1.67
2023-09-13T10:46:55.978Z,1.25
2023-09-13T10:49:24.964Z,1.08
2023-09-13T10:51:52.417Z,1.42
2023-09-13T10:54:20.644Z,1.20
2023-09-13T10:56:49.755Z,1.10
2023-09-13T10:59:21.349Z,1.20
2023-09-13T11:01:49.041Z,0.90
2023-09-13T11:04:22.230Z,0.98
2023-09-13T11:06:50.194Z,1.20
2023-09-13T11:09:28.480Z,1.20
2023-09-13T11:11:57.631Z,1.00
2023-09-13T11:14:29.920Z,1.30
2023-09-13T11:17:08.857Z,0.98
2023-09-13T11:19:36.137Z,1.15
2023-09-13T11:22:04.442Z,0.93
2023-09-13T11:27:21.500Z,1.08
2023-09-13T11:30:07.620Z,1.30
2023-09-13T11:32:35.846Z,1.05
2023-09-13T11:35:04.042Z,1.23
2023-09-13T11:37:33.819Z,0.65
2023-09-13T11:40:12.931Z,0.80
2023-09-13T11:42:56.230Z,0.68
2023-09-13T11:45:34.705Z,0.70
2023-09-13T11:48:05.819Z,1.00
2023-09-13T11:50:48.189Z,1.08
2023-09-13T11:53:22.293Z,0.85
2023-09-13T11:58:54.437Z,0.95
2023-09-13T12:01:29.354Z,0.77
2023-09-13T12:06:44.375Z,0.82
2023-09-13T12:09:19.749Z,0.70
2023-09-13T12:11:57.342Z,0.70
2023-09-13T12:14:40.619Z,0.60
2023-09-13T12:17:13.672Z,0.50
2023-09-13T12:19:41.215Z,0.50
2023-09-13T12:22:26.581Z,0.25
2023-09-13T12:24:54.137Z,0.55
2023-09-13T12:27:24.258Z,0.55
2023-09-13T12:29:52.452Z,0.40
2023-09-13T12:32:19.657Z,0.50
2023-09-13T12:34:47.105Z,0.50
2023-09-13T12:37:16.125Z,0.47
2023-09-13T12:39:43.641Z,0.30
2023-09-13T12:42:10.851Z,0.60
2023-09-13T12:44:39.606Z,0.70
2023-09-13T12:47:07.279Z,0.60
2023-09-13T12:49:38.481Z,0.43
2023-09-13T12:52:06.410Z,0.73
2023-09-13T12:54:37.656Z,0.60
2023-09-13T12:57:05.110Z,0.30
2023-09-13T12:59:45.845Z,0.50
2023-09-13T13:02:14.637Z,0.60
2023-09-13T13:04:44.583Z,0.60
2023-09-13T13:07:20.363Z,0.60
2023-09-13T13:09:54.491Z,0.68
2023-09-13T13:12:21.802Z,0.68
2023-09-13T13:14:52.869Z,0.68
2023-09-13T13:17:20.156Z,0.60
2023-09-13T13:19:56.349Z,1.00
2023-09-13T13:22:25.316Z,0.88
2023-09-13T13:24:53.911Z,0.70
2023-09-13T13:27:21.360Z,0.90
2023-09-13T13:29:49.488Z,0.65
2023-09-13T13:32:17.727Z,0.93
2023-09-13T13:34:45.086Z,0.80
2023-09-13T13:37:12.485Z,0.82
2023-09-13T13:39:39.609Z,0.82
2023-09-13T13:42:07.018Z,0.95
2023-09-13T13:44:35.852Z,0.60
2023-09-13T13:47:04.106Z,0.82
2023-09-13T13:49:31.163Z,0.80
2023-09-13T13:51:58.201Z,0.65
2023-09-13T13:54:25.231Z,0.85
2023-09-13T13:56:52.277Z,0.75
2023-09-13T13:59:19.274Z,0.70
2023-09-13T14:01:46.808Z,0.60
2023-09-13T14:04:15.569Z,0.90
2023-09-13T14:06:46.643Z,0.73
2023-09-13T14:09:17.596Z,0.73
2023-09-13T14:11:44.985Z,0.80
2023-09-13T14:14:14.639Z,0.93
2023-09-13T14:16:42.018Z,0.85
2023-09-13T14:19:09.323Z,0.70
2023-09-13T14:21:36.824Z,1.20
2023-09-13T14:24:05.894Z,0.77
2023-09-13T14:26:33.279Z,0.82
2023-09-13T14:29:00.707Z,1.40
2023-09-13T14:31:27.742Z,1.05
2023-09-13T14:33:55.126Z,1.10
2023-09-13T14:36:22.247Z,0.90
2023-09-13T14:38:49.211Z,1.25
2023-09-13T14:41:16.236Z,0.85
2023-09-13T14:43:43.501Z,1.02
2023-09-13T14:46:10.877Z,1.20
2023-09-13T14:48:38.220Z,2.10
2023-09-13T14:51:05.364Z,1.40
2023-09-13T14:53:32.356Z,1.00
2023-09-13T14:55:59.430Z,1.25
2023-09-13T14:58:26.477Z,1.30
2023-09-13T15:00:53.725Z,0.95
2023-09-13T15:03:21.173Z,1.33
2023-09-13T15:05:48.336Z,1.08
2023-09-13T15:08:15.293Z,0.93
2023-09-13T15:10:42.415Z,1.00
2023-09-13T15:13:09.415Z,1.10
2023-09-13T15:15:36.797Z,1.10
2023-09-13T15:18:04.108Z,0.77
2023-09-13T15:20:32.488Z,1.10
2023-09-13T15:22:59.480Z,1.25
2023-09-13T15:25:26.615Z,1.75
2023-09-13T15:27:53.593Z,1.35
2023-09-13T15:30:20.650Z,1.17
2023-09-13T15:32:47.883Z,0.93
2023-09-13T15:35:15.002Z,1.02
2023-09-13T15:37:42.187Z,1.38
2023-09-13T15:40:10.671Z,1.17
2023-09-13T15:42:39.805Z,1.08
2023-09-13T15:45:09.768Z,1.30
2023-09-13T15:47:38.655Z,0.85
2023-09-13T15:50:06.186Z,1.40
2023-09-13T15:52:33.442Z,1.52
2023-09-13T15:55:00.484Z,1.10
2023-09-13T15:57:27.647Z,1.30
2023-09-13T15:59:54.679Z,1.20
2023-09-13T16:02:21.788Z,1.33
2023-09-13T16:04:51.326Z,1.35
2023-09-13T16:07:18.549Z,1.30
2023-09-13T16:09:45.811Z,1.10
2023-09-13T16:12:12.937Z,1.20
2023-09-13T16:14:39.982Z,1.02
2023-09-13T16:17:08.395Z,1.20
2023-09-13T16:19:35.400Z,1.85
2023-09-13T16:22:04.316Z,1.30
2023-09-13T16:24:31.851Z,1.15
2023-09-13T16:26:58.961Z,1.33
2023-09-13T16:29:25.985Z,1.17
2023-09-13T16:31:53.391Z,1.10
2023-09-13T16:34:20.405Z,1.35
2023-09-13T16:36:47.521Z,1.35
2023-09-13T16:39:17.220Z,1.40
2023-09-13T16:42:03.414Z,1.30
2023-09-13T16:44:30.481Z,1.23
2023-09-13T16:46:57.424Z,1.15
2023-09-13T16:49:26.550Z,1.10
2023-09-13T16:51:53.619Z,1.40
2023-09-13T16:54:20.807Z,1.23
2023-09-13T16:56:47.866Z,1.35
2023-09-13T16:59:33.186Z,0.95
2023-09-13T17:02:00.223Z,1.10
2023-09-13T17:04:27.404Z,1.30
2023-09-13T17:06:54.688Z,1.20
2023-09-13T17:09:21.741Z,1.40
2023-09-13T17:11:48.808Z,1.45
2023-09-13T17:14:15.909Z,1.20
2023-09-13T17:16:42.927Z,1.30
2023-09-13T17:19:09.997Z,1.42
2023-09-13T17:21:37.083Z,1.30
2023-09-13T17:24:05.092Z,1.15
2023-09-13T17:26:32.222Z,1.60
2023-09-13T17:28:59.238Z,1.83
2023-09-13T17:31:26.338Z,1.33
2023-09-13T17:33:53.510Z,1.30
2023-09-13T17:36:32.194Z,1.77
2023-09-13T17:39:09.713Z,1.30
2023-09-13T17:41:38.363Z,1.45
2023-09-13T17:44:05.596Z,1.30
2023-09-13T17:46:32.786Z,1.65
2023-09-13T17:49:01.086Z,1.20
2023-09-13T17:51:31.176Z,1.33
2023-09-13T17:53:59.198Z,1.48
2023-09-13T17:56:26.688Z,1.08
2023-09-13T17:58:53.850Z,1.25
2023-09-13T18:01:20.824Z,1.00
2023-09-13T18:03:48.236Z,1.00
2023-09-13T18:06:15.383Z,1.20
2023-09-13T18:08:43.198Z,1.40
2023-09-13T18:11:10.474Z,1.13
2023-09-13T18:13:37.515Z,1.30
2023-09-13T18:16:04.704Z,1.00
2023-09-13T18:18:31.925Z,1.30
2023-09-13T18:21:00.553Z,1.38
2023-09-13T18:23:28.359Z,1.50
2023-09-13T18:25:55.320Z,1.35
2023-09-13T18:28:22.369Z,1.48
2023-09-13T18:30:49.429Z,1.38
2023-09-13T18:33:16.528Z,1.58
2023-09-13T18:35:43.509Z,1.55
2023-09-13T18:38:10.529Z,1.13
2023-09-13T18:40:38.193Z,1.30
2023-09-13T18:43:06.542Z,1.23
2023-09-13T18:45:38.302Z,0.95
2023-09-13T18:48:07.214Z,1.15
2023-09-13T18:50:35.147Z,1.33
2023-09-13T18:53:02.937Z,1.13
2023-09-13T18:55:30.614Z,1.48
2023-09-13T18:57:57.684Z,1.75
2023-09-13T19:00:24.876Z,1.58
2023-09-13T19:02:53.039Z,1.40
2023-09-13T19:05:22.058Z,1.52
2023-09-13T19:07:49.704Z,1.58
2023-09-13T19:10:16.831Z,1.10
2023-09-13T19:12:43.926Z,1.38
2023-09-13T19:15:11.302Z,1.60
2023-09-13T19:17:38.365Z,1.25
2023-09-13T19:20:06.923Z,1.60
2023-09-13T19:22:34.584Z,1.27
2023-09-13T19:25:01.704Z,1.23
2023-09-13T19:27:28.835Z,1.50
2023-09-13T19:29:55.986Z,1.05
2023-09-13T19:32:23.331Z,1.38
2023-09-13T19:34:51.089Z,1.30
2023-09-13T19:37:18.602Z,1.35
2023-09-13T19:39:45.767Z,1.95
2023-09-13T19:42:13.247Z,1.30
2023-09-13T19:44:42.284Z,1.42
2023-09-13T19:47:09.391Z,1.00
2023-09-13T19:49:37.798Z,1.08
2023-09-13T19:52:05.043Z,1.27
2023-09-13T19:54:32.069Z,1.00
2023-09-13T19:57:00.159Z,1.40
2023-09-13T19:59:27.219Z,1.33
2023-09-13T20:01:54.531Z,1.10
2023-09-13T20:04:21.656Z,1.30
2023-09-13T20:06:48.798Z,1.08
2023-09-13T20:09:16.043Z,1.40
2023-09-13T20:11:44.557Z,1.20
2023-09-13T20:14:11.898Z,1.50
2023-09-13T20:16:39.038Z,1.38
2023-09-13T20:19:06.192Z,1.25
2023-09-13T20:21:33.457Z,1.42
2023-09-13T20:24:00.724Z,1.40
2023-09-13T20:26:27.794Z,1.30
2023-09-13T20:28:54.940Z,1.50
2023-09-13T20:31:27.036Z,1.45
2023-09-13T20:33:55.108Z,1.40
2023-09-13T20:36:22.694Z,1.48
2023-09-13T20:38:49.838Z,1.90
2023-09-13T20:41:17.408Z,1.35
2023-09-13T20:43:44.572Z,1.70
2023-09-13T20:46:11.682Z,4.63
2023-09-13T20:48:38.818Z,6.20
2023-09-13T20:51:05.906Z,116.72
2023-09-13T20:53:34.625Z,59.70
2023-09-13T20:56:02.060Z,30.23
2023-09-13T20:58:29.029Z,21.25
2023-09-13T21:00:56.135Z,26.85
2023-09-13T21:03:23.333Z,14.13
2023-09-13T21:05:55.564Z,12.65
2023-09-13T21:08:22.683Z,9.77
2023-09-13T21:10:49.647Z,3.78
2023-09-13T21:13:16.708Z,2.30
2023-09-13T21:15:43.721Z,2.13
2023-09-13T21:18:10.857Z,1.73
2023-09-13T21:20:37.797Z,1.77
2023-09-13T21:23:08.798Z,1.85
2023-09-13T21:25:35.951Z,1.60
2023-09-13T21:28:04.618Z,1.88
2023-09-13T21:30:31.810Z,1.95
2023-09-13T21:32:58.884Z,1.58
2023-09-13T21:35:25.925Z,1.52
2023-09-13T21:37:52.911Z,1.55
2023-09-13T21:40:20.065Z,1.70
2023-09-13T21:42:47.166Z,1.50
2023-09-13T21:45:14.369Z,1.50
2023-09-13T21:47:41.399Z,1.65
2023-09-13T21:50:08.799Z,1.88
2023-09-13T21:52:35.853Z,1.70
2023-09-13T21:55:02.882Z,1.70
2023-09-13T21:57:29.992Z,2.08
2023-09-13T21:59:57.411Z,1.83
2023-09-13T22:02:24.410Z,2.00
2023-09-13T22:04:51.492Z,1.80
2023-09-13T22:07:18.443Z,1.90
2023-09-13T22:09:49.107Z,2.05
2023-09-13T22:12:16.308Z,1.90
2023-09-13T22:14:43.352Z,1.98
2023-09-13T22:17:10.452Z,2.13
2023-09-13T22:19:37.445Z,1.80
2023-09-13T22:22:04.760Z,2.00
2023-09-13T22:24:31.877Z,2.42
2023-09-13T22:26:58.945Z,2.20
2023-09-13T22:29:25.966Z,2.38
2023-09-13T22:32:11.364Z,1.95
2023-09-13T22:34:39.961Z,2.10
2023-09-13T22:37:07.514Z,2.00
2023-09-13T22:39:34.746Z,2.20
2023-09-13T22:42:06.214Z,2.20
2023-09-13T22:44:34.116Z,2.08
2023-09-13T22:47:01.474Z,2.10
2023-09-13T22:49:28.711Z,2.30
2023-09-13T22:51:56.940Z,1.92
2023-09-13T22:54:24.031Z,2.13
2023-09-13T22:56:51.385Z,2.25
2023-09-13T22:59:18.715Z,2.17
2023-09-13T23:01:48.799Z,2.10
2023-09-13T23:04:16.352Z,2.03
2023-09-13T23:06:44.220Z,2.10
2023-09-13T23:09:30.078Z,2.50
2023-09-13T23:11:57.251Z,2.15
2023-09-13T23:14:25.118Z,2.60
2023-09-13T23:16:52.434Z,2.20
2023-09-13T23:19:19.414Z,2.10
2023-09-13T23:21:46.394Z,2.22
2023-09-13T23:24:13.839Z,2.28
2023-09-13T23:26:41.932Z,2.47
2023-09-13T23:29:09.981Z,2.22
2023-09-13T23:31:38.319Z,2.45
2023-09-13T23:34:06.385Z,2.40
2023-09-13T23:36:33.650Z,2.30
2023-09-13T23:39:03.514Z,2.50
2023-09-13T23:41:31.120Z,1.90
2023-09-13T23:43:58.256Z,2.38
2023-09-13T23:46:25.514Z,2.33
2023-09-13T23:48:53.328Z,2.55
2023-09-13T23:51:20.492Z,2.42
2023-09-13T23:53:50.780Z,2.50
2023-09-13T23:56:20.785Z,2.80
2023-09-13T23:58:48.973Z,2.58
